sensor_id;sensor_type;location;lat;lon;timestamp;temperature;humidity
997;DHT22;487;50.126;8.698;2023-02-12T00:00:50;8.30;99.90
997;DHT22;487;50.126;8.698;2023-02-12T00:03:18;8.30;99.90
997;DHT22;487;50.126;8.698;2023-02-12T00:05:46;8.30;99.90
997;DHT22;487;50.126;8.698;2023-02-12T00:08:14;8.40;99.90
997;DHT22;487;50.126;8.698;2023-02-12T00:10:43;8.30;99.90
997;DHT22;487;50.126;8.698;2023-02-12T00:13:11;8.30;99.90
997;DHT22;487;50.126;8.698;2023-02-12T00:15:41;8.40;99.90
997;DHT22;487;50.126;8.698;2023-02-12T00:18:09;8.40;99.90
997;DHT22;487;50.126;8.698;2023-02-12T00:20:37;8.40;99.90
997;DHT22;487;50.126;8.698;2023-02-12T00:23:05;8.40;99.90
997;DHT22;487;50.126;8.698;2023-02-12T00:25:33;8.30;99.90
997;DHT22;487;50.126;8.698;2023-02-12T00:28:02;8.30;99.90
997;DHT22;487;50.126;8.698;2023-02-12T00:30:30;8.30;99.90
997;DHT22;487;50.126;8.698;2023-02-12T00:32:59;8.30;99.90
997;DHT22;487;50.126;8.698;2023-02-12T00:35:27;8.30;99.90
997;DHT22;487;50.126;8.698;2023-02-12T00:37:55;8.30;99.90
997;DHT22;487;50.126;8.698;2023-02-12T00:40:22;8.30;99.90
997;DHT22;487;50.126;8.698;2023-02-12T00:42:50;8.30;99.90
997;DHT22;487;50.126;8.698;2023-02-12T00:45:19;8.30;99.90
997;DHT22;487;50.126;8.698;2023-02-12T00:47:47;8.30;99.90
997;DHT22;487;50.126;8.698;2023-02-12T00:50:15;8.30;99.90
997;DHT22;487;50.126;8.698;2023-02-12T00:52:43;8.30;99.90
997;DHT22;487;50.126;8.698;2023-02-12T00:55:11;8.50;99.90
997;DHT22;487;50.126;8.698;2023-02-12T00:57:39;8.30;99.90
997;DHT22;487;50.126;8.698;2023-02-12T05:02:53;8.30;98.30
997;DHT22;487;50.126;8.698;2023-02-12T05:05:21;8.20;99.90
997;DHT22;487;50.126;8.698;2023-02-12T05:07:49;8.20;99.90
997;DHT22;487;50.126;8.698;2023-02-12T05:10:18;8.20;99.90
997;DHT22;487;50.126;8.698;2023-02-12T05:12:46;8.20;99.90
997;DHT22;487;50.126;8.698;2023-02-12T05:15:13;8.10;99.90
997;DHT22;487;50.126;8.698;2023-02-12T05:17:41;8.10;99.90
997;DHT22;487;50.126;8.698;2023-02-12T05:20:13;8.10;99.90
997;DHT22;487;50.126;8.698;2023-02-12T05:22:41;8.10;99.90
997;DHT22;487;50.126;8.698;2023-02-12T05:25:09;8.10;99.90
997;DHT22;487;50.126;8.698;2023-02-12T05:27:37;8.10;99.90
997;DHT22;487;50.126;8.698;2023-02-12T05:30:06;8.10;99.90
997;DHT22;487;50.126;8.698;2023-02-12T05:32:35;8.10;99.90
997;DHT22;487;50.126;8.698;2023-02-12T05:35:03;8.10;99.90
997;DHT22;487;50.126;8.698;2023-02-12T05:37:34;8.00;99.90
997;DHT22;487;50.126;8.698;2023-02-12T05:40:03;8.00;99.90
997;DHT22;487;50.126;8.698;2023-02-12T05:42:32;8.00;99.90
997;DHT22;487;50.126;8.698;2023-02-12T05:44:59;8.10;99.90
997;DHT22;487;50.126;8.698;2023-02-12T05:47:27;8.00;99.90
997;DHT22;487;50.126;8.698;2023-02-12T05:49:55;8.00;99.90
997;DHT22;487;50.126;8.698;2023-02-12T05:52:23;8.00;99.90
997;DHT22;487;50.126;8.698;2023-02-12T05:54:52;8.00;99.90
997;DHT22;487;50.126;8.698;2023-02-12T05:57:20;8.00;99.90
997;DHT22;487;50.126;8.698;2023-02-12T05:59:48;8.00;99.90
997;DHT22;487;50.126;8.698;2023-02-12T06:02:16;8.00;99.90
997;DHT22;487;50.126;8.698;2023-02-12T06:04:43;8.00;99.90
997;DHT22;487;50.126;8.698;2023-02-12T06:07:14;8.00;99.90
997;DHT22;487;50.126;8.698;2023-02-12T06:09:42;7.90;99.90
997;DHT22;487;50.126;8.698;2023-02-12T06:12:11;8.00;99.90
997;DHT22;487;50.126;8.698;2023-02-12T06:14:40;8.00;99.90
997;DHT22;487;50.126;8.698;2023-02-12T06:17:08;8.00;99.90
997;DHT22;487;50.126;8.698;2023-02-12T06:19:36;8.00;99.90
997;DHT22;487;50.126;8.698;2023-02-12T06:22:05;8.00;99.90
997;DHT22;487;50.126;8.698;2023-02-12T06:24:33;8.00;99.90
997;DHT22;487;50.126;8.698;2023-02-12T06:27:00;8.00;99.90
997;DHT22;487;50.126;8.698;2023-02-12T06:29:29;8.00;99.90
997;DHT22;487;50.126;8.698;2023-02-12T06:31:57;8.00;99.90
997;DHT22;487;50.126;8.698;2023-02-12T06:34:25;8.10;99.90
997;DHT22;487;50.126;8.698;2023-02-12T06:36:53;8.10;99.90
997;DHT22;487;50.126;8.698;2023-02-12T06:39:21;8.10;99.90
997;DHT22;487;50.126;8.698;2023-02-12T06:41:49;8.10;99.90
997;DHT22;487;50.126;8.698;2023-02-12T06:44:17;8.10;99.90
997;DHT22;487;50.126;8.698;2023-02-12T06:46:46;8.00;99.90
997;DHT22;487;50.126;8.698;2023-02-12T06:49:14;8.10;99.90
997;DHT22;487;50.126;8.698;2023-02-12T06:51:42;8.10;99.90
997;DHT22;487;50.126;8.698;2023-02-12T06:54:14;8.10;99.90
997;DHT22;487;50.126;8.698;2023-02-12T06:56:43;8.10;99.90
997;DHT22;487;50.126;8.698;2023-02-12T06:59:13;8.10;99.90
997;DHT22;487;50.126;8.698;2023-02-12T07:01:41;8.20;99.90
997;DHT22;487;50.126;8.698;2023-02-12T07:04:11;8.20;99.90
997;DHT22;487;50.126;8.698;2023-02-12T07:06:39;8.20;99.90
997;DHT22;487;50.126;8.698;2023-02-12T07:09:07;8.20;99.90
997;DHT22;487;50.126;8.698;2023-02-12T07:11:35;8.20;99.90
997;DHT22;487;50.126;8.698;2023-02-12T07:14:04;8.20;99.90
997;DHT22;487;50.126;8.698;2023-02-12T07:16:32;6.70;99.90
997;DHT22;487;50.126;8.698;2023-02-12T07:19:00;8.20;99.90
997;DHT22;487;50.126;8.698;2023-02-12T07:21:29;8.20;99.90
997;DHT22;487;50.126;8.698;2023-02-12T07:23:58;8.20;99.90
997;DHT22;487;50.126;8.698;2023-02-12T07:26:26;8.20;99.90
997;DHT22;487;50.126;8.698;2023-02-12T07:28:56;8.20;99.90
997;DHT22;487;50.126;8.698;2023-02-12T07:31:24;8.20;99.90
997;DHT22;487;50.126;8.698;2023-02-12T07:33:53;8.20;99.90
997;DHT22;487;50.126;8.698;2023-02-12T07:36:21;8.20;99.90
997;DHT22;487;50.126;8.698;2023-02-12T07:38:51;8.20;99.90
997;DHT22;487;50.126;8.698;2023-02-12T07:41:22;8.10;99.90
997;DHT22;487;50.126;8.698;2023-02-12T07:43:53;8.10;99.90
997;DHT22;487;50.126;8.698;2023-02-12T07:46:24;7.40;99.90
997;DHT22;487;50.126;8.698;2023-02-12T07:48:56;8.10;99.90
997;DHT22;487;50.126;8.698;2023-02-12T07:51:24;8.10;99.90
997;DHT22;487;50.126;8.698;2023-02-12T07:53:54;8.10;99.90
997;DHT22;487;50.126;8.698;2023-02-12T07:56:24;8.10;99.90
997;DHT22;487;50.126;8.698;2023-02-12T07:58:56;8.10;99.90
997;DHT22;487;50.126;8.698;2023-02-12T08:01:25;8.10;99.90
997;DHT22;487;50.126;8.698;2023-02-12T08:03:56;8.10;99.90
997;DHT22;487;50.126;8.698;2023-02-12T08:06:28;8.10;99.90
997;DHT22;487;50.126;8.698;2023-02-12T08:08:59;8.10;99.90
997;DHT22;487;50.126;8.698;2023-02-12T08:11:28;8.20;99.90
997;DHT22;487;50.126;8.698;2023-02-12T08:13:56;8.20;99.90
997;DHT22;487;50.126;8.698;2023-02-12T08:16:26;8.20;99.90
997;DHT22;487;50.126;8.698;2023-02-12T08:18:55;8.20;99.90
997;DHT22;487;50.126;8.698;2023-02-12T08:21:40;8.30;99.90
997;DHT22;487;50.126;8.698;2023-02-12T08:24:10;8.30;99.90
997;DHT22;487;50.126;8.698;2023-02-12T08:26:38;8.30;99.90
997;DHT22;487;50.126;8.698;2023-02-12T08:29:08;8.40;99.90
997;DHT22;487;50.126;8.698;2023-02-12T08:31:38;8.40;99.90
997;DHT22;487;50.126;8.698;2023-02-12T08:34:15;8.40;99.90
997;DHT22;487;50.126;8.698;2023-02-12T08:36:44;8.40;99.90
997;DHT22;487;50.126;8.698;2023-02-12T08:39:15;8.40;99.90
997;DHT22;487;50.126;8.698;2023-02-12T08:41:43;8.50;99.90
997;DHT22;487;50.126;8.698;2023-02-12T08:44:11;8.50;99.90
997;DHT22;487;50.126;8.698;2023-02-12T08:46:43;8.50;99.90
997;DHT22;487;50.126;8.698;2023-02-12T08:49:12;8.50;99.90
997;DHT22;487;50.126;8.698;2023-02-12T08:51:43;8.50;99.90
997;DHT22;487;50.126;8.698;2023-02-12T08:54:17;8.60;99.90
997;DHT22;487;50.126;8.698;2023-02-12T08:56:45;8.60;99.90
997;DHT22;487;50.126;8.698;2023-02-12T08:59:14;8.60;99.90
997;DHT22;487;50.126;8.698;2023-02-12T09:01:43;8.60;99.90
997;DHT22;487;50.126;8.698;2023-02-12T09:04:14;8.70;99.90
997;DHT22;487;50.126;8.698;2023-02-12T09:06:44;8.70;99.90
997;DHT22;487;50.126;8.698;2023-02-12T09:09:14;8.70;99.90
997;DHT22;487;50.126;8.698;2023-02-12T09:11:43;8.70;99.90
997;DHT22;487;50.126;8.698;2023-02-12T09:14:12;8.80;99.90
997;DHT22;487;50.126;8.698;2023-02-12T09:16:41;8.80;99.90
997;DHT22;487;50.126;8.698;2023-02-12T09:19:11;8.80;99.90
997;DHT22;487;50.126;8.698;2023-02-12T09:21:39;8.80;99.90
997;DHT22;487;50.126;8.698;2023-02-12T09:24:08;8.80;99.90
997;DHT22;487;50.126;8.698;2023-02-12T09:26:38;8.80;99.90
997;DHT22;487;50.126;8.698;2023-02-12T09:29:08;8.90;99.90
997;DHT22;487;50.126;8.698;2023-02-12T09:31:36;8.90;99.90
997;DHT22;487;50.126;8.698;2023-02-12T09:34:05;8.90;99.90
997;DHT22;487;50.126;8.698;2023-02-12T09:39:04;8.90;99.90
997;DHT22;487;50.126;8.698;2023-02-12T09:42:05;8.90;99.90
997;DHT22;487;50.126;8.698;2023-02-12T09:44:41;9.00;99.90
997;DHT22;487;50.126;8.698;2023-02-12T09:47:15;9.10;99.90
997;DHT22;487;50.126;8.698;2023-02-12T09:50:00;9.10;99.90
997;DHT22;487;50.126;8.698;2023-02-12T09:52:29;9.20;99.90
997;DHT22;487;50.126;8.698;2023-02-12T09:57:29;9.30;99.90
997;DHT22;487;50.126;8.698;2023-02-12T10:00:02;9.30;99.90
997;DHT22;487;50.126;8.698;2023-02-12T10:02:34;9.20;99.90
997;DHT22;487;50.126;8.698;2023-02-12T10:05:04;9.20;99.90
997;DHT22;487;50.126;8.698;2023-02-12T10:07:52;9.20;99.90
997;DHT22;487;50.126;8.698;2023-02-12T10:10:34;9.10;99.90
997;DHT22;487;50.126;8.698;2023-02-12T10:13:12;9.20;99.90
997;DHT22;487;50.126;8.698;2023-02-12T10:15:49;9.20;99.90
997;DHT22;487;50.126;8.698;2023-02-12T10:18:36;9.20;99.90
997;DHT22;487;50.126;8.698;2023-02-12T10:21:20;9.20;99.90
997;DHT22;487;50.126;8.698;2023-02-12T10:24:19;9.30;99.90
997;DHT22;487;50.126;8.698;2023-02-12T10:26:55;9.30;99.90
997;DHT22;487;50.126;8.698;2023-02-12T10:29:29;9.40;99.90
997;DHT22;487;50.126;8.698;2023-02-12T10:32:02;9.50;99.90
997;DHT22;487;50.126;8.698;2023-02-12T10:34:33;9.50;99.90
997;DHT22;487;50.126;8.698;2023-02-12T10:37:04;9.60;99.90
997;DHT22;487;50.126;8.698;2023-02-12T10:39:41;9.60;99.90
997;DHT22;487;50.126;8.698;2023-02-12T10:42:15;9.70;99.90
997;DHT22;487;50.126;8.698;2023-02-12T10:44:45;9.80;99.90
997;DHT22;487;50.126;8.698;2023-02-12T10:47:15;9.90;99.90
997;DHT22;487;50.126;8.698;2023-02-12T10:49:44;9.90;99.90
997;DHT22;487;50.126;8.698;2023-02-12T10:52:18;10.00;99.90
997;DHT22;487;50.126;8.698;2023-02-12T10:54:48;10.10;99.90
997;DHT22;487;50.126;8.698;2023-02-12T10:57:19;10.20;99.90
997;DHT22;487;50.126;8.698;2023-02-12T10:59:51;10.30;99.90
997;DHT22;487;50.126;8.698;2023-02-12T11:02:25;10.30;99.90
997;DHT22;487;50.126;8.698;2023-02-12T11:04:54;10.50;99.90
997;DHT22;487;50.126;8.698;2023-02-12T11:07:24;10.50;99.90
997;DHT22;487;50.126;8.698;2023-02-12T11:09:54;10.60;99.90
997;DHT22;487;50.126;8.698;2023-02-12T11:12:31;10.60;99.90
997;DHT22;487;50.126;8.698;2023-02-12T11:15:09;10.60;99.90
997;DHT22;487;50.126;8.698;2023-02-12T11:17:41;10.60;99.90
997;DHT22;487;50.126;8.698;2023-02-12T11:20:24;10.80;99.90
997;DHT22;487;50.126;8.698;2023-02-12T11:22:56;10.70;99.90
997;DHT22;487;50.126;8.698;2023-02-12T11:25:25;10.70;99.90
997;DHT22;487;50.126;8.698;2023-02-12T11:28:15;10.70;99.90
997;DHT22;487;50.126;8.698;2023-02-12T11:30:53;10.70;99.90
997;DHT22;487;50.126;8.698;2023-02-12T11:33:25;10.70;99.90
997;DHT22;487;50.126;8.698;2023-02-12T11:35:55;10.70;99.90
997;DHT22;487;50.126;8.698;2023-02-12T11:38:32;10.80;99.90
997;DHT22;487;50.126;8.698;2023-02-12T11:41:20;10.70;99.90
997;DHT22;487;50.126;8.698;2023-02-12T11:43:50;10.70;99.90
997;DHT22;487;50.126;8.698;2023-02-12T11:46:21;10.80;99.90
997;DHT22;487;50.126;8.698;2023-02-12T11:48:51;10.80;99.90
997;DHT22;487;50.126;8.698;2023-02-12T11:51:23;10.80;99.90
997;DHT22;487;50.126;8.698;2023-02-12T11:53:53;10.70;99.90
997;DHT22;487;50.126;8.698;2023-02-12T11:56:22;10.80;99.90
997;DHT22;487;50.126;8.698;2023-02-12T11:58:50;10.70;99.90
997;DHT22;487;50.126;8.698;2023-02-12T12:01:23;10.70;99.90
997;DHT22;487;50.126;8.698;2023-02-12T12:03:59;10.80;99.90
997;DHT22;487;50.126;8.698;2023-02-12T12:06:33;10.80;99.90
997;DHT22;487;50.126;8.698;2023-02-12T12:09:06;10.90;99.90
997;DHT22;487;50.126;8.698;2023-02-12T12:11:43;10.90;99.90
997;DHT22;487;50.126;8.698;2023-02-12T12:14:16;10.90;99.90
997;DHT22;487;50.126;8.698;2023-02-12T12:16:53;10.90;99.90
997;DHT22;487;50.126;8.698;2023-02-12T12:19:42;10.90;99.90
997;DHT22;487;50.126;8.698;2023-02-12T12:22:30;11.00;99.90
997;DHT22;487;50.126;8.698;2023-02-12T12:25:12;11.00;99.90
997;DHT22;487;50.126;8.698;2023-02-12T12:27:58;11.00;99.90
997;DHT22;487;50.126;8.698;2023-02-12T12:30:41;11.10;99.90
997;DHT22;487;50.126;8.698;2023-02-12T12:33:15;11.10;99.90
997;DHT22;487;50.126;8.698;2023-02-12T12:35:52;11.10;99.90
997;DHT22;487;50.126;8.698;2023-02-12T12:38:33;11.10;99.90
997;DHT22;487;50.126;8.698;2023-02-12T12:41:13;11.10;99.90
997;DHT22;487;50.126;8.698;2023-02-12T12:43:54;11.10;99.90
997;DHT22;487;50.126;8.698;2023-02-12T12:46:33;11.10;99.90
997;DHT22;487;50.126;8.698;2023-02-12T12:49:17;11.20;99.90
997;DHT22;487;50.126;8.698;2023-02-12T12:54:39;11.20;99.90
997;DHT22;487;50.126;8.698;2023-02-12T12:57:17;11.20;99.90
997;DHT22;487;50.126;8.698;2023-02-12T13:00:02;11.20;99.90
997;DHT22;487;50.126;8.698;2023-02-12T13:03:15;11.30;99.90
997;DHT22;487;50.126;8.698;2023-02-12T13:06:11;11.30;99.90
997;DHT22;487;50.126;8.698;2023-02-12T13:08:49;11.20;99.90
997;DHT22;487;50.126;8.698;2023-02-12T13:11:27;11.20;99.90
997;DHT22;487;50.126;8.698;2023-02-12T13:14:09;11.10;99.90
997;DHT22;487;50.126;8.698;2023-02-12T13:16:43;11.00;99.90
997;DHT22;487;50.126;8.698;2023-02-12T13:19:18;10.90;99.90
997;DHT22;487;50.126;8.698;2023-02-12T13:21:55;10.80;99.90
997;DHT22;487;50.126;8.698;2023-02-12T13:24:30;11.00;99.90
997;DHT22;487;50.126;8.698;2023-02-12T13:27:04;11.00;99.90
997;DHT22;487;50.126;8.698;2023-02-12T13:29:36;11.00;99.90
997;DHT22;487;50.126;8.698;2023-02-12T13:32:12;11.10;99.90
997;DHT22;487;50.126;8.698;2023-02-12T13:34:42;11.10;99.90
997;DHT22;487;50.126;8.698;2023-02-12T13:37:17;11.10;99.90
997;DHT22;487;50.126;8.698;2023-02-12T13:42:32;11.10;99.90
997;DHT22;487;50.126;8.698;2023-02-12T13:45:06;11.20;99.90
997;DHT22;487;50.126;8.698;2023-02-12T13:50:29;11.30;99.90
997;DHT22;487;50.126;8.698;2023-02-12T13:53:04;11.40;99.90
997;DHT22;487;50.126;8.698;2023-02-12T13:55:38;11.40;99.90
997;DHT22;487;50.126;8.698;2023-02-12T14:01:37;11.60;99.90
997;DHT22;487;50.126;8.698;2023-02-12T14:04:25;11.60;99.90
997;DHT22;487;50.126;8.698;2023-02-12T14:06:57;11.70;98.60
997;DHT22;487;50.126;8.698;2023-02-12T14:09:32;11.70;92.60
997;DHT22;487;50.126;8.698;2023-02-12T14:12:03;11.70;95.40
997;DHT22;487;50.126;8.698;2023-02-12T14:14:34;11.50;95.50
997;DHT22;487;50.126;8.698;2023-02-12T14:17:39;11.40;96.50
997;DHT22;487;50.126;8.698;2023-02-12T14:20:19;11.40;94.30
997;DHT22;487;50.126;8.698;2023-02-12T14:23:02;11.40;98.00
997;DHT22;487;50.126;8.698;2023-02-12T14:25:55;11.30;98.70
997;DHT22;487;50.126;8.698;2023-02-12T14:28:28;11.30;99.00
997;DHT22;487;50.126;8.698;2023-02-12T14:34:35;11.10;99.90
997;DHT22;487;50.126;8.698;2023-02-12T14:37:31;11.00;99.90
997;DHT22;487;50.126;8.698;2023-02-12T14:40:38;10.90;99.20
997;DHT22;487;50.126;8.698;2023-02-12T14:43:26;10.70;99.90
997;DHT22;487;50.126;8.698;2023-02-12T14:45:56;10.60;99.90
997;DHT22;487;50.126;8.698;2023-02-12T14:48:44;10.60;99.90
997;DHT22;487;50.126;8.698;2023-02-12T14:51:18;10.50;99.90
997;DHT22;487;50.126;8.698;2023-02-12T14:53:48;10.60;99.90
997;DHT22;487;50.126;8.698;2023-02-12T14:56:20;10.50;99.90
997;DHT22;487;50.126;8.698;2023-02-12T14:58:51;10.60;99.90
997;DHT22;487;50.126;8.698;2023-02-12T15:01:27;10.60;99.90
997;DHT22;487;50.126;8.698;2023-02-12T15:03:57;10.60;99.90
997;DHT22;487;50.126;8.698;2023-02-12T15:06:35;10.60;99.90
997;DHT22;487;50.126;8.698;2023-02-12T15:09:09;10.70;99.90
997;DHT22;487;50.126;8.698;2023-02-12T15:11:43;10.70;99.90
997;DHT22;487;50.126;8.698;2023-02-12T15:14:15;10.60;99.90
997;DHT22;487;50.126;8.698;2023-02-12T15:16:53;10.60;99.90
997;DHT22;487;50.126;8.698;2023-02-12T15:19:33;10.50;99.90
997;DHT22;487;50.126;8.698;2023-02-12T15:22:18;10.40;99.90
997;DHT22;487;50.126;8.698;2023-02-12T15:27:16;10.30;99.90
997;DHT22;487;50.126;8.698;2023-02-12T15:29:48;10.30;99.90
997;DHT22;487;50.126;8.698;2023-02-12T15:32:22;10.30;99.90
997;DHT22;487;50.126;8.698;2023-02-12T15:34:52;10.30;99.90
997;DHT22;487;50.126;8.698;2023-02-12T15:37:24;10.30;99.90
997;DHT22;487;50.126;8.698;2023-02-12T15:39:54;10.30;99.90
997;DHT22;487;50.126;8.698;2023-02-12T15:42:29;10.30;99.90
997;DHT22;487;50.126;8.698;2023-02-12T15:45:18;10.30;99.90
997;DHT22;487;50.126;8.698;2023-02-12T15:47:58;10.20;99.90
997;DHT22;487;50.126;8.698;2023-02-12T15:50:28;10.20;99.90
997;DHT22;487;50.126;8.698;2023-02-12T15:52:56;10.20;99.90
997;DHT22;487;50.126;8.698;2023-02-12T15:55:26;10.20;99.90
997;DHT22;487;50.126;8.698;2023-02-12T15:57:56;10.10;99.90
997;DHT22;487;50.126;8.698;2023-02-12T16:00:34;10.10;99.90
997;DHT22;487;50.126;8.698;2023-02-12T16:03:02;10.10;99.90
997;DHT22;487;50.126;8.698;2023-02-12T16:05:31;10.10;99.90
997;DHT22;487;50.126;8.698;2023-02-12T16:08:01;10.10;99.90
997;DHT22;487;50.126;8.698;2023-02-12T16:10:29;10.10;99.90
997;DHT22;487;50.126;8.698;2023-02-12T16:12:57;10.00;99.90
997;DHT22;487;50.126;8.698;2023-02-12T16:15:29;9.90;99.90
997;DHT22;487;50.126;8.698;2023-02-12T16:17:58;10.00;99.90
997;DHT22;487;50.126;8.698;2023-02-12T16:20:30;10.00;99.90
997;DHT22;487;50.126;8.698;2023-02-12T16:22:58;10.00;99.90
997;DHT22;487;50.126;8.698;2023-02-12T16:25:32;10.00;99.90
997;DHT22;487;50.126;8.698;2023-02-12T16:28:02;10.10;99.90
997;DHT22;487;50.126;8.698;2023-02-12T16:30:34;10.00;99.90
997;DHT22;487;50.126;8.698;2023-02-12T16:33:05;10.00;99.90
997;DHT22;487;50.126;8.698;2023-02-12T16:36:00;10.00;99.90
997;DHT22;487;50.126;8.698;2023-02-12T16:38:39;10.00;99.90
997;DHT22;487;50.126;8.698;2023-02-12T16:41:22;9.90;99.90
997;DHT22;487;50.126;8.698;2023-02-12T16:44:20;9.90;99.90
997;DHT22;487;50.126;8.698;2023-02-12T16:46:54;9.80;99.90
997;DHT22;487;50.126;8.698;2023-02-12T16:49:24;9.80;99.90
997;DHT22;487;50.126;8.698;2023-02-12T16:51:52;9.70;99.90
997;DHT22;487;50.126;8.698;2023-02-12T16:54:27;9.70;99.90
997;DHT22;487;50.126;8.698;2023-02-12T16:56:55;9.70;99.90
997;DHT22;487;50.126;8.698;2023-02-12T16:59:23;9.70;99.90
997;DHT22;487;50.126;8.698;2023-02-12T17:02:00;9.70;99.90
997;DHT22;487;50.126;8.698;2023-02-12T17:04:28;9.70;99.90
997;DHT22;487;50.126;8.698;2023-02-12T17:06:56;9.60;99.90
997;DHT22;487;50.126;8.698;2023-02-12T17:09:24;9.60;99.90
997;DHT22;487;50.126;8.698;2023-02-12T17:11:52;9.60;99.90
997;DHT22;487;50.126;8.698;2023-02-12T17:14:20;9.60;99.90
997;DHT22;487;50.126;8.698;2023-02-12T17:16:48;9.60;99.90
997;DHT22;487;50.126;8.698;2023-02-12T17:19:17;9.60;99.90
997;DHT22;487;50.126;8.698;2023-02-12T17:21:46;9.60;99.90
997;DHT22;487;50.126;8.698;2023-02-12T17:24:19;9.60;99.90
997;DHT22;487;50.126;8.698;2023-02-12T17:26:48;9.60;99.90
997;DHT22;487;50.126;8.698;2023-02-12T17:31:44;9.60;99.90
997;DHT22;487;50.126;8.698;2023-02-12T17:34:14;9.60;99.90
997;DHT22;487;50.126;8.698;2023-02-12T17:36:43;9.60;99.90
997;DHT22;487;50.126;8.698;2023-02-12T17:39:13;9.60;99.90
997;DHT22;487;50.126;8.698;2023-02-12T17:41:41;9.60;99.90
997;DHT22;487;50.126;8.698;2023-02-12T17:44:10;9.60;99.90
997;DHT22;487;50.126;8.698;2023-02-12T17:46:39;9.60;99.90
997;DHT22;487;50.126;8.698;2023-02-12T17:49:07;9.60;99.90
997;DHT22;487;50.126;8.698;2023-02-12T17:51:35;9.50;99.90
997;DHT22;487;50.126;8.698;2023-02-12T17:54:05;9.50;99.90
997;DHT22;487;50.126;8.698;2023-02-12T17:56:33;9.50;99.90
997;DHT22;487;50.126;8.698;2023-02-12T17:59:01;9.50;99.90
997;DHT22;487;50.126;8.698;2023-02-12T18:01:29;9.50;99.90
997;DHT22;487;50.126;8.698;2023-02-12T18:03:57;9.50;99.90
997;DHT22;487;50.126;8.698;2023-02-12T18:06:27;9.50;99.90
997;DHT22;487;50.126;8.698;2023-02-12T18:08:55;9.40;99.90
997;DHT22;487;50.126;8.698;2023-02-12T18:11:25;9.40;99.90
997;DHT22;487;50.126;8.698;2023-02-12T18:13:54;9.40;99.90
997;DHT22;487;50.126;8.698;2023-02-12T18:16:25;9.40;99.90
997;DHT22;487;50.126;8.698;2023-02-12T18:18:53;9.50;99.90
997;DHT22;487;50.126;8.698;2023-02-12T18:21:21;9.50;99.90
997;DHT22;487;50.126;8.698;2023-02-12T18:23:49;9.50;99.90
997;DHT22;487;50.126;8.698;2023-02-12T18:26:17;9.50;99.90
997;DHT22;487;50.126;8.698;2023-02-12T18:28:47;9.50;99.90
997;DHT22;487;50.126;8.698;2023-02-12T18:31:17;9.50;99.90
997;DHT22;487;50.126;8.698;2023-02-12T18:33:45;9.60;99.90
997;DHT22;487;50.126;8.698;2023-02-12T18:36:15;9.50;99.90
997;DHT22;487;50.126;8.698;2023-02-12T18:38:45;9.60;99.90
997;DHT22;487;50.126;8.698;2023-02-12T18:41:15;9.60;99.90
997;DHT22;487;50.126;8.698;2023-02-12T18:43:43;9.60;99.90
997;DHT22;487;50.126;8.698;2023-02-12T18:46:15;9.60;99.90
997;DHT22;487;50.126;8.698;2023-02-12T18:48:43;9.50;99.90
997;DHT22;487;50.126;8.698;2023-02-12T18:51:14;9.60;99.90
997;DHT22;487;50.126;8.698;2023-02-12T18:53:43;9.60;99.90
997;DHT22;487;50.126;8.698;2023-02-12T18:56:12;9.50;99.90
997;DHT22;487;50.126;8.698;2023-02-12T18:58:40;9.50;99.90
997;DHT22;487;50.126;8.698;2023-02-12T19:01:13;9.60;99.90
997;DHT22;487;50.126;8.698;2023-02-12T19:03:41;9.50;99.90
997;DHT22;487;50.126;8.698;2023-02-12T19:06:10;9.50;99.90
997;DHT22;487;50.126;8.698;2023-02-12T19:08:38;9.50;99.90
997;DHT22;487;50.126;8.698;2023-02-12T19:11:07;9.50;99.90
997;DHT22;487;50.126;8.698;2023-02-12T19:13:35;9.40;99.90
997;DHT22;487;50.126;8.698;2023-02-12T19:16:06;9.50;99.90
997;DHT22;487;50.126;8.698;2023-02-12T19:18:35;9.50;99.90
997;DHT22;487;50.126;8.698;2023-02-12T19:21:05;9.50;99.90
997;DHT22;487;50.126;8.698;2023-02-12T19:23:35;9.50;99.90
997;DHT22;487;50.126;8.698;2023-02-12T19:26:03;9.50;99.90
997;DHT22;487;50.126;8.698;2023-02-12T19:28:32;9.50;99.90
997;DHT22;487;50.126;8.698;2023-02-12T19:31:08;9.70;99.90
997;DHT22;487;50.126;8.698;2023-02-12T19:33:41;9.60;99.90
997;DHT22;487;50.126;8.698;2023-02-12T19:36:12;9.50;99.90
997;DHT22;487;50.126;8.698;2023-02-12T19:38:40;9.50;99.90
997;DHT22;487;50.126;8.698;2023-02-12T19:41:10;9.50;99.90
997;DHT22;487;50.126;8.698;2023-02-12T19:43:38;9.50;99.90
997;DHT22;487;50.126;8.698;2023-02-12T19:46:08;9.50;99.90
997;DHT22;487;50.126;8.698;2023-02-12T19:48:36;9.60;99.90
997;DHT22;487;50.126;8.698;2023-02-12T19:51:06;9.50;99.90
997;DHT22;487;50.126;8.698;2023-02-12T19:53:35;9.60;99.90
997;DHT22;487;50.126;8.698;2023-02-12T19:56:04;9.50;99.90
997;DHT22;487;50.126;8.698;2023-02-12T19:58:33;9.50;99.90
997;DHT22;487;50.126;8.698;2023-02-12T20:01:06;9.50;99.90
997;DHT22;487;50.126;8.698;2023-02-12T20:03:34;9.50;99.90
997;DHT22;487;50.126;8.698;2023-02-12T20:06:06;9.50;99.90
997;DHT22;487;50.126;8.698;2023-02-12T20:08:35;9.50;99.90
997;DHT22;487;50.126;8.698;2023-02-12T20:11:04;9.50;99.90
997;DHT22;487;50.126;8.698;2023-02-12T20:13:33;9.60;99.90
997;DHT22;487;50.126;8.698;2023-02-12T20:16:01;9.60;99.90
997;DHT22;487;50.126;8.698;2023-02-12T20:18:29;9.60;99.90
997;DHT22;487;50.126;8.698;2023-02-12T20:20:58;9.60;99.90
997;DHT22;487;50.126;8.698;2023-02-12T20:23:27;9.60;99.90
997;DHT22;487;50.126;8.698;2023-02-12T20:25:55;9.60;99.90
997;DHT22;487;50.126;8.698;2023-02-12T20:28:23;9.60;99.90
997;DHT22;487;50.126;8.698;2023-02-12T20:30:52;9.60;99.90
997;DHT22;487;50.126;8.698;2023-02-12T20:33:21;9.70;99.90
997;DHT22;487;50.126;8.698;2023-02-12T20:35:54;9.70;99.90
997;DHT22;487;50.126;8.698;2023-02-12T20:38:22;9.70;99.90
997;DHT22;487;50.126;8.698;2023-02-12T20:40:52;9.70;99.90
997;DHT22;487;50.126;8.698;2023-02-12T20:43:21;9.70;99.90
997;DHT22;487;50.126;8.698;2023-02-12T20:45:48;9.70;99.90
997;DHT22;487;50.126;8.698;2023-02-12T20:48:16;9.70;99.90
997;DHT22;487;50.126;8.698;2023-02-12T20:50:46;9.70;99.90
997;DHT22;487;50.126;8.698;2023-02-12T20:53:14;9.70;99.90
997;DHT22;487;50.126;8.698;2023-02-12T20:55:42;9.70;99.90
997;DHT22;487;50.126;8.698;2023-02-12T20:58:11;9.70;99.90
997;DHT22;487;50.126;8.698;2023-02-12T21:00:38;9.70;99.90
997;DHT22;487;50.126;8.698;2023-02-12T21:03:06;9.70;99.90
997;DHT22;487;50.126;8.698;2023-02-12T21:05:35;9.70;99.90
997;DHT22;487;50.126;8.698;2023-02-12T21:08:04;9.70;99.90
997;DHT22;487;50.126;8.698;2023-02-12T21:10:32;9.80;99.90
997;DHT22;487;50.126;8.698;2023-02-12T21:13:00;9.80;99.90
997;DHT22;487;50.126;8.698;2023-02-12T21:15:30;9.80;99.90
997;DHT22;487;50.126;8.698;2023-02-12T21:17:57;9.80;99.90
997;DHT22;487;50.126;8.698;2023-02-12T21:20:25;9.80;99.90
997;DHT22;487;50.126;8.698;2023-02-12T21:22:53;9.80;99.90
997;DHT22;487;50.126;8.698;2023-02-12T21:25:21;9.80;99.90
997;DHT22;487;50.126;8.698;2023-02-12T21:30:18;9.80;99.90
997;DHT22;487;50.126;8.698;2023-02-12T21:32:47;9.80;99.90
997;DHT22;487;50.126;8.698;2023-02-12T21:35:16;9.80;99.90
997;DHT22;487;50.126;8.698;2023-02-12T21:37:44;9.80;99.90
997;DHT22;487;50.126;8.698;2023-02-12T21:40:12;9.80;99.90
997;DHT22;487;50.126;8.698;2023-02-12T21:42:40;9.80;99.90
997;DHT22;487;50.126;8.698;2023-02-12T21:45:08;9.80;99.90
997;DHT22;487;50.126;8.698;2023-02-12T21:47:36;9.80;99.90